createdAt,value
2023-03-01T00:00:28.811Z,19.10
2023-03-01T00:03:15.872Z,19.55
2023-03-01T00:06:04.145Z,20.75
2023-03-01T00:08:51.858Z,19.17
2023-03-01T00:11:38.991Z,17.27
2023-03-01T00:14:26.733Z,19.52
2023-03-01T00:17:13.988Z,16.27
2023-03-01T00:20:01.115Z,19.80
2023-03-01T00:22:48.464Z,17.82
2023-03-01T00:25:37.524Z,16.90
2023-03-01T00:28:24.554Z,18.48
2023-03-01T00:31:15.127Z,19.85
2023-03-01T00:34:05.183Z,20.50
2023-03-01T00:36:52.437Z,19.62
2023-03-01T00:39:39.673Z,19.73
2023-03-01T00:42:26.813Z,19.82
2023-03-01T00:45:14.197Z,17.42
2023-03-01T00:48:01.538Z,20.02
2023-03-01T00:50:48.688Z,19.80
2023-03-01T00:53:36.493Z,18.77
2023-03-01T00:56:23.796Z,20.43
2023-03-01T00:59:11.256Z,19.87
2023-03-01T01:01:58.353Z,18.65
2023-03-01T01:04:45.499Z,20.95
2023-03-01T01:07:32.813Z,18.45
2023-03-01T01:10:19.829Z,20.95
2023-03-01T01:13:07.097Z,22.58
2023-03-01T01:15:54.274Z,20.02
2023-03-01T01:18:41.834Z,21.07
2023-03-01T01:21:29.288Z,19.50
2023-03-01T01:24:17.495Z,21.15
2023-03-01T01:27:05.170Z,18.30
2023-03-01T01:29:53.947Z,19.62
2023-03-01T01:32:41.326Z,18.35
2023-03-01T01:35:29.524Z,21.37
2023-03-01T01:38:16.751Z,19.73
2023-03-01T01:41:04.362Z,22.82
2023-03-01T01:44:11.024Z,22.17
2023-03-01T01:47:16.140Z,18.57
2023-03-01T01:50:04.147Z,20.97
2023-03-01T01:52:54.808Z,22.37
2023-03-01T01:55:45.866Z,18.98
2023-03-01T01:58:33.445Z,21.57
2023-03-01T02:01:21.303Z,18.40
2023-03-01T02:04:08.355Z,20.62
2023-03-01T02:07:01.496Z,20.08
2023-03-01T02:09:51.658Z,22.25
2023-03-01T02:12:40.458Z,23.07
2023-03-01T02:15:28.030Z,25.12
2023-03-01T02:18:19.261Z,19.75
2023-03-01T02:21:30.256Z,21.00
2023-03-01T02:24:36.990Z,19.75
2023-03-01T02:27:27.066Z,21.68
2023-03-01T02:30:14.471Z,20.35
2023-03-01T02:33:05.330Z,19.82
2023-03-01T02:35:53.945Z,22.98
2023-03-01T02:38:42.764Z,21.48
2023-03-01T02:41:33.081Z,19.20
2023-03-01T02:44:21.151Z,23.90
2023-03-01T02:47:08.469Z,23.87
2023-03-01T02:49:55.738Z,21.48
2023-03-01T02:52:51.714Z,20.43
2023-03-01T02:55:39.601Z,19.07
2023-03-01T02:58:26.632Z,21.85
2023-03-01T03:01:16.954Z,23.20
2023-03-01T03:04:07.869Z,19.17
2023-03-01T03:06:55.253Z,19.30
2023-03-01T03:09:42.340Z,23.22
2023-03-01T03:12:29.560Z,22.80
2023-03-01T03:15:16.741Z,24.05
2023-03-01T03:18:06.126Z,21.70
2023-03-01T03:20:54.057Z,26.48
2023-03-01T03:23:41.782Z,23.12
2023-03-01T03:26:29.554Z,22.45
2023-03-01T03:29:16.948Z,24.98
2023-03-01T03:32:04.544Z,24.77
2023-03-01T03:34:51.968Z,20.80
2023-03-01T03:37:59.509Z,25.62
2023-03-01T03:40:52.048Z,21.12
2023-03-01T03:43:41.232Z,24.47
2023-03-01T03:46:28.413Z,29.12
2023-03-01T03:49:15.745Z,26.57
2023-03-01T03:52:02.825Z,25.77
2023-03-01T03:54:49.987Z,23.35
2023-03-01T03:57:38.018Z,24.02
2023-03-01T04:00:25.568Z,25.95
2023-03-01T04:03:14.872Z,25.95
2023-03-01T04:06:03.384Z,21.80
2023-03-01T04:08:52.031Z,23.62
2023-03-01T04:11:39.624Z,23.00
2023-03-01T04:14:26.744Z,27.00
2023-03-01T04:17:13.893Z,29.18
2023-03-01T04:20:01.031Z,23.00
2023-03-01T04:22:48.557Z,26.42
2023-03-01T04:25:35.869Z,24.23
2023-03-01T04:28:31.670Z,25.02
2023-03-01T04:31:22.104Z,22.85
2023-03-01T04:34:09.975Z,24.75
2023-03-01T04:36:57.285Z,25.32
2023-03-01T04:39:48.231Z,27.37
2023-03-01T04:42:35.587Z,27.13
2023-03-01T04:45:22.607Z,24.40
2023-03-01T04:48:09.728Z,25.60
2023-03-01T04:50:57.104Z,26.77
2023-03-01T04:53:44.220Z,22.00
2023-03-01T04:56:31.813Z,23.92
2023-03-01T04:59:19.066Z,24.70
2023-03-01T05:02:06.308Z,25.32
2023-03-01T05:04:55.561Z,23.65
2023-03-01T05:07:42.795Z,25.05
2023-03-01T05:10:33.438Z,23.87
2023-03-01T05:13:22.203Z,24.70
2023-03-01T05:16:13.737Z,23.30
2023-03-01T05:19:01.919Z,23.07
2023-03-01T05:22:07.726Z,28.67
2023-03-01T05:24:54.990Z,24.10
2023-03-01T05:27:42.092Z,23.77
2023-03-01T05:30:29.246Z,22.62
2023-03-01T05:33:16.554Z,24.27
2023-03-01T05:36:03.869Z,22.67
2023-03-01T05:38:51.328Z,21.45
2023-03-01T05:41:38.753Z,29.35
2023-03-01T05:44:26.437Z,25.55
2023-03-01T05:47:13.703Z,21.62
2023-03-01T05:50:01.415Z,22.58
2023-03-01T05:52:49.748Z,32.20
2023-03-01T05:55:37.594Z,23.55
2023-03-01T05:58:25.278Z,23.47
2023-03-01T06:01:15.157Z,22.05
2023-03-01T06:04:02.715Z,21.48
2023-03-01T06:06:49.868Z,22.77
2023-03-01T06:09:37.438Z,23.92
2023-03-01T06:12:24.895Z,22.45
2023-03-01T06:15:13.825Z,24.67
2023-03-01T06:18:01.005Z,25.57
2023-03-01T06:20:56.862Z,24.72
2023-03-01T06:23:43.829Z,22.35
2023-03-01T06:26:31.500Z,23.47
2023-03-01T06:29:18.662Z,28.73
2023-03-01T06:32:06.225Z,26.93
2023-03-01T06:34:53.278Z,23.15
2023-03-01T06:37:40.692Z,24.55
2023-03-01T06:40:28.430Z,21.48
2023-03-01T06:43:15.597Z,25.62
2023-03-01T06:46:09.197Z,23.45
2023-03-01T06:48:56.248Z,26.02
2023-03-01T06:51:43.713Z,22.48
2023-03-01T06:54:30.949Z,23.05
2023-03-01T06:57:18.783Z,25.17
2023-03-01T07:00:07.928Z,25.15
2023-03-01T07:02:55.648Z,24.55
2023-03-01T07:05:42.989Z,20.10
2023-03-01T07:08:30.200Z,24.45
2023-03-01T07:11:18.064Z,22.75
2023-03-01T07:14:06.224Z,23.83
2023-03-01T07:16:54.528Z,22.67
2023-03-01T07:19:42.011Z,23.62
2023-03-01T07:22:29.265Z,22.98
2023-03-01T07:25:16.447Z,24.98
2023-03-01T07:28:03.669Z,21.37
2023-03-01T07:30:50.987Z,26.35
2023-03-01T07:33:38.452Z,24.63
2023-03-01T07:36:26.165Z,25.10
2023-03-01T07:39:13.807Z,22.50
2023-03-01T07:42:01.673Z,19.60
2023-03-01T07:44:48.957Z,24.63
2023-03-01T07:47:37.446Z,24.70
2023-03-01T07:50:25.091Z,24.05
2023-03-01T07:53:12.352Z,22.00
2023-03-01T07:56:04.904Z,23.20
2023-03-01T07:58:52.059Z,21.20
2023-03-01T08:01:39.295Z,20.32
2023-03-01T08:04:27.537Z,25.88
2023-03-01T08:07:14.900Z,23.85
2023-03-01T08:10:02.478Z,24.30
2023-03-01T08:12:49.497Z,22.93
2023-03-01T08:15:36.682Z,23.27
2023-03-01T08:18:23.951Z,23.62
2023-03-01T08:21:16.896Z,21.82
2023-03-01T08:24:08.471Z,23.12
2023-03-01T08:26:56.304Z,24.63
2023-03-01T08:29:43.837Z,27.13
2023-03-01T08:32:31.037Z,23.85
2023-03-01T08:35:18.542Z,23.52
2023-03-01T08:38:05.859Z,21.55
2023-03-01T08:40:53.265Z,24.40
2023-03-01T08:43:40.479Z,20.90
2023-03-01T08:46:29.632Z,24.32
2023-03-01T08:49:19.222Z,25.88
2023-03-01T08:52:06.379Z,24.70
2023-03-01T08:54:53.436Z,25.68
2023-03-01T08:57:40.759Z,25.17
2023-03-01T09:00:28.803Z,21.52
2023-03-01T09:03:15.865Z,21.68
2023-03-01T09:06:04.143Z,23.35
2023-03-01T09:08:52.639Z,26.55
2023-03-01T09:11:39.952Z,26.20
2023-03-01T09:14:27.335Z,19.92
2023-03-01T09:17:14.555Z,23.02
2023-03-01T09:20:01.597Z,20.45
2023-03-01T09:22:49.131Z,21.60
2023-03-01T09:25:37.864Z,22.87
2023-03-01T09:28:30.200Z,23.10
2023-03-01T09:31:15.004Z,21.15
2023-03-01T09:34:02.342Z,21.05
2023-03-01T09:36:49.410Z,23.57
2023-03-01T09:39:37.388Z,22.00
2023-03-01T09:42:24.571Z,21.15
2023-03-01T09:45:21.243Z,24.40
2023-03-01T09:48:11.865Z,22.02
2023-03-01T09:50:59.616Z,23.42
2023-03-01T09:53:47.286Z,24.05
2023-03-01T09:56:42.849Z,26.17
2023-03-01T09:59:50.804Z,23.02
2023-03-01T10:02:53.660Z,23.52
2023-03-01T10:06:00.435Z,18.52
2023-03-01T10:08:53.305Z,26.17
2023-03-01T10:11:46.372Z,20.68
2023-03-01T10:14:36.720Z,23.52
2023-03-01T10:17:32.717Z,23.60
2023-03-01T10:20:23.197Z,25.85
2023-03-01T10:23:10.878Z,23.25
2023-03-01T10:26:12.899Z,21.82
2023-03-01T10:29:05.570Z,24.82
2023-03-01T10:31:54.722Z,21.35
2023-03-01T10:34:42.302Z,21.07
2023-03-01T10:37:30.429Z,20.52
2023-03-01T10:40:19.430Z,20.92
2023-03-01T10:43:08.372Z,21.33
2023-03-01T10:45:55.668Z,26.05
2023-03-01T10:48:42.871Z,20.48
2023-03-01T10:51:30.315Z,21.80
2023-03-01T10:54:32.490Z,21.00
2023-03-01T10:57:36.328Z,23.38
2023-03-01T11:00:27.746Z,19.07
2023-03-01T11:03:17.744Z,21.80
2023-03-01T11:06:16.882Z,22.62
2023-03-01T11:09:19.156Z,21.37
2023-03-01T11:12:09.109Z,20.32
2023-03-01T11:14:57.909Z,17.87
2023-03-01T11:17:54.597Z,17.77
2023-03-01T11:20:39.246Z,19.85
2023-03-01T11:23:29.922Z,18.25
2023-03-01T11:26:18.909Z,20.82
2023-03-01T11:29:09.095Z,18.10
2023-03-01T11:31:59.271Z,22.75
2023-03-01T11:34:52.569Z,17.73
2023-03-01T11:38:08.073Z,17.98
2023-03-01T11:41:20.977Z,18.35
2023-03-01T11:44:25.744Z,15.15
2023-03-01T11:47:21.604Z,20.37
2023-03-01T11:50:31.554Z,16.52
2023-03-01T11:53:39.204Z,19.20
2023-03-01T11:56:41.940Z,14.58
2023-03-01T11:59:40.758Z,17.32
2023-03-01T12:02:50.170Z,19.12
2023-03-01T12:05:55.230Z,15.03
2023-03-01T12:09:01.646Z,20.05
2023-03-01T12:12:00.971Z,14.20
2023-03-01T12:15:16.745Z,16.77
2023-03-01T12:18:29.660Z,16.30
2023-03-01T12:21:45.724Z,16.25
2023-03-01T12:24:39.820Z,15.80
2023-03-01T12:27:29.980Z,15.00
2023-03-01T12:30:38.053Z,13.85
2023-03-01T12:33:40.608Z,14.80
2023-03-01T12:36:39.549Z,15.45
2023-03-01T12:39:41.370Z,19.87
2023-03-01T12:42:58.581Z,16.95
2023-03-01T12:45:54.586Z,20.32
2023-03-01T12:48:59.599Z,17.62
2023-03-01T12:52:01.747Z,15.38
2023-03-01T12:54:51.036Z,15.72
2023-03-01T12:57:47.225Z,13.95
2023-03-01T13:00:43.696Z,16.90
2023-03-01T13:03:39.981Z,16.80
2023-03-01T13:06:58.822Z,18.40
2023-03-01T13:10:09.909Z,16.73
2023-03-01T13:13:05.266Z,16.97
2023-03-01T13:15:53.840Z,14.95
2023-03-01T13:18:40.883Z,13.83
2023-03-01T13:21:31.111Z,18.65
2023-03-01T13:24:30.018Z,13.38
2023-03-01T13:27:24.999Z,13.70
2023-03-01T13:30:31.483Z,13.83
2023-03-01T13:33:30.728Z,13.80
2023-03-01T13:36:35.014Z,13.62
2023-03-01T13:39:34.748Z,15.43
2023-03-01T13:42:39.969Z,13.78
2023-03-01T13:45:42.290Z,16.77
2023-03-01T13:48:32.041Z,18.12
2023-03-01T13:51:25.646Z,13.70
2023-03-01T13:54:15.358Z,16.62
2023-03-01T13:57:04.003Z,18.02
2023-03-01T13:59:51.090Z,13.68
2023-03-01T14:02:38.122Z,15.45
2023-03-01T14:05:25.344Z,12.90
2023-03-01T14:08:24.378Z,12.85
2023-03-01T14:11:47.708Z,15.18
2023-03-01T14:14:50.057Z,14.47
2023-03-01T14:17:40.207Z,13.80
2023-03-01T14:20:30.834Z,14.15
2023-03-01T14:23:21.172Z,13.55
2023-03-01T14:26:10.347Z,14.15
2023-03-01T14:28:57.575Z,15.25
2023-03-01T14:31:52.888Z,16.55
2023-03-01T14:34:34.612Z,15.95
2023-03-01T14:37:36.354Z,18.25
2023-03-01T14:40:26.614Z,17.15
2023-03-01T14:43:15.859Z,15.20
2023-03-01T14:46:03.107Z,12.58
2023-03-01T14:48:55.899Z,14.78
2023-03-01T14:51:46.582Z,15.43
2023-03-01T14:54:44.633Z,13.13
2023-03-01T14:57:31.934Z,14.85
2023-03-01T15:00:25.873Z,13.70
2023-03-01T15:03:19.178Z,18.55
2023-03-01T15:06:08.740Z,14.80
2023-03-01T15:08:57.812Z,13.08
2023-03-01T15:11:45.188Z,13.38
2023-03-01T15:14:49.499Z,12.10
2023-03-01T15:17:37.997Z,13.28
2023-03-01T15:20:28.258Z,12.68
2023-03-01T15:23:26.791Z,13.93
2023-03-01T15:26:25.004Z,18.05
2023-03-01T15:29:21.108Z,13.10
2023-03-01T15:32:29.364Z,8.03
2023-03-01T15:35:35.976Z,12.85
2023-03-01T15:38:39.931Z,13.43
2023-03-01T15:41:32.805Z,13.90
2023-03-01T15:44:41.511Z,13.68
2023-03-01T15:47:31.160Z,14.90
2023-03-01T15:50:27.488Z,12.40
2023-03-01T15:53:16.589Z,16.48
2023-03-01T15:56:04.230Z,13.55
2023-03-01T15:58:51.318Z,14.45
2023-03-01T16:01:38.442Z,16.75
2023-03-01T16:04:26.045Z,12.93
2023-03-01T16:07:13.392Z,17.00
2023-03-01T16:10:02.015Z,13.20
2023-03-01T16:12:49.080Z,14.55
2023-03-01T16:15:36.597Z,13.80
2023-03-01T16:18:23.630Z,22.13
2023-03-01T16:21:16.611Z,13.35
2023-03-01T16:24:03.606Z,15.45
2023-03-01T16:26:50.765Z,12.78
2023-03-01T16:29:38.240Z,16.12
2023-03-01T16:32:25.400Z,14.20
2023-03-01T16:35:14.721Z,13.22
2023-03-01T16:38:02.355Z,15.83
2023-03-01T16:40:51.916Z,17.02
2023-03-01T16:43:39.138Z,15.13
2023-03-01T16:46:29.045Z,14.43
2023-03-01T16:49:15.911Z,12.85
2023-03-01T16:52:03.042Z,15.98
2023-03-01T16:54:50.171Z,14.43
2023-03-01T16:57:38.928Z,14.95
2023-03-01T17:00:26.636Z,14.98
2023-03-01T17:03:14.875Z,17.23
2023-03-01T17:06:10.920Z,12.05
2023-03-01T17:09:00.118Z,15.18
2023-03-01T17:11:47.234Z,14.53
2023-03-01T17:14:34.616Z,19.40
2023-03-01T17:17:22.645Z,13.32
2023-03-01T17:20:10.853Z,13.55
2023-03-01T17:22:58.605Z,15.98
2023-03-01T17:25:46.639Z,12.98
2023-03-01T17:28:35.296Z,16.67
2023-03-01T17:31:23.014Z,15.58
2023-03-01T17:34:10.019Z,17.50
2023-03-01T17:36:57.420Z,21.97
2023-03-01T17:39:44.882Z,12.60
2023-03-01T17:42:32.070Z,16.15
2023-03-01T17:45:19.258Z,13.90
2023-03-01T17:48:07.552Z,16.70
2023-03-01T17:50:55.826Z,17.27
2023-03-01T17:53:43.094Z,16.95
2023-03-01T17:56:31.991Z,18.80
2023-03-01T17:59:18.824Z,20.82
2023-03-01T18:02:06.253Z,18.42
2023-03-01T18:04:53.843Z,16.57
2023-03-01T18:07:41.088Z,19.80
2023-03-01T18:10:28.279Z,16.45
2023-03-01T18:13:15.537Z,21.97
2023-03-01T18:16:09.069Z,16.97
2023-03-01T18:18:57.321Z,18.27
2023-03-01T18:21:44.443Z,16.40
2023-03-01T18:24:31.720Z,17.15
2023-03-01T18:27:19.490Z,17.60
2023-03-01T18:30:08.617Z,19.42
2023-03-01T18:32:56.320Z,17.82
2023-03-01T18:35:43.436Z,17.05
2023-03-01T18:38:30.801Z,18.52
2023-03-01T18:41:18.086Z,17.30
2023-03-01T18:44:06.757Z,18.62
2023-03-01T18:46:55.451Z,16.60
2023-03-01T18:49:42.747Z,16.25
2023-03-01T18:52:30.006Z,15.93
2023-03-01T18:55:17.364Z,13.70
2023-03-01T18:58:05.220Z,16.93
2023-03-01T19:00:52.592Z,15.60
2023-03-01T19:03:39.791Z,18.20
2023-03-01T19:06:31.281Z,19.65
2023-03-01T19:09:18.923Z,17.55
2023-03-01T19:12:06.391Z,18.35
2023-03-01T19:14:56.688Z,16.48
2023-03-01T19:17:47.152Z,18.62
2023-03-01T19:20:34.578Z,19.40
2023-03-01T19:23:22.093Z,15.10
2023-03-01T19:26:12.039Z,18.10
2023-03-01T19:28:59.256Z,17.40
2023-03-01T19:31:46.385Z,20.77
2023-03-01T19:34:34.079Z,20.90
2023-03-01T19:37:21.267Z,17.35
2023-03-01T19:40:11.038Z,18.92
2023-03-01T19:42:58.233Z,15.72
2023-03-01T19:45:46.777Z,19.57
2023-03-01T19:48:34.248Z,18.57
2023-03-01T19:51:21.990Z,17.62
2023-03-01T19:54:09.973Z,18.90
2023-03-01T19:56:57.268Z,17.57
2023-03-01T19:59:44.769Z,20.00
2023-03-01T20:02:32.039Z,20.32
2023-03-01T20:05:19.390Z,17.98
2023-03-01T20:08:09.126Z,17.32
2023-03-01T20:11:07.904Z,17.25
2023-03-01T20:13:55.237Z,18.57
2023-03-01T20:16:44.362Z,18.27
2023-03-01T20:19:31.636Z,19.23
2023-03-01T20:22:19.225Z,19.42
2023-03-01T20:25:07.583Z,19.02
2023-03-01T20:27:55.184Z,20.57
2023-03-01T20:30:42.860Z,25.35
2023-03-01T20:33:30.122Z,23.92
2023-03-01T20:36:17.456Z,33.25
2023-03-01T20:39:05.100Z,37.28
2023-03-01T20:41:52.440Z,18.60
2023-03-01T20:44:41.533Z,17.87
2023-03-01T20:47:28.867Z,18.02
2023-03-01T20:50:16.883Z,24.40
2023-03-01T20:53:04.127Z,21.02
2023-03-01T20:55:51.433Z,20.62
2023-03-01T20:58:39.371Z,19.30
2023-03-01T21:01:27.383Z,19.23
2023-03-01T21:04:14.807Z,19.48
2023-03-01T21:07:01.977Z,16.52
2023-03-01T21:09:51.959Z,21.25
2023-03-01T21:12:39.284Z,20.48
2023-03-01T21:15:29.509Z,20.52
2023-03-01T21:18:14.980Z,19.35
2023-03-01T21:21:05.483Z,15.48
2023-03-01T21:23:52.740Z,20.65
2023-03-01T21:26:39.897Z,17.42
2023-03-01T21:29:27.131Z,17.87
2023-03-01T21:32:15.396Z,17.02
2023-03-01T21:35:02.675Z,15.30
2023-03-01T21:37:50.211Z,19.45
2023-03-01T21:40:38.542Z,17.82
2023-03-01T21:43:26.080Z,18.25
2023-03-01T21:46:16.242Z,18.42
2023-03-01T21:49:04.769Z,16.55
2023-03-01T21:51:52.238Z,17.62
2023-03-01T21:54:42.653Z,18.00
2023-03-01T21:57:30.456Z,17.30
2023-03-01T22:00:18.057Z,20.20
2023-03-01T22:03:04.855Z,19.92
2023-03-01T22:05:57.212Z,18.05
2023-03-01T22:08:45.806Z,19.90
2023-03-01T22:11:38.127Z,17.27
2023-03-01T22:14:26.502Z,18.32
2023-03-01T22:17:13.564Z,19.82
2023-03-01T22:20:00.808Z,17.23
2023-03-01T22:22:48.252Z,17.07
2023-03-01T22:25:38.498Z,15.98
2023-03-01T22:28:25.825Z,20.37
2023-03-01T22:31:13.221Z,20.70
2023-03-01T22:34:00.289Z,21.75
2023-03-01T22:36:48.187Z,21.62
2023-03-01T22:39:35.439Z,22.15
2023-03-01T22:42:22.576Z,18.87
2023-03-01T22:45:10.277Z,19.32
2023-03-01T22:47:58.184Z,18.40
2023-03-01T22:50:47.420Z,20.65
2023-03-01T22:53:34.809Z,16.52
2023-03-01T22:56:25.088Z,19.48
2023-03-01T22:59:15.214Z,18.37
2023-03-01T23:02:02.632Z,16.25
2023-03-01T23:04:50.368Z,17.60
2023-03-01T23:07:38.245Z,20.85
2023-03-01T23:10:25.962Z,19.73
2023-03-01T23:13:13.450Z,16.25
2023-03-01T23:16:00.687Z,16.32
2023-03-01T23:18:47.956Z,19.05
2023-03-01T23:21:35.251Z,15.85
2023-03-01T23:24:26.545Z,22.27
2023-03-01T23:27:15.594Z,14.80
2023-03-01T23:30:03.115Z,18.20
2023-03-01T23:32:50.682Z,17.65
2023-03-01T23:35:40.038Z,15.08
2023-03-01T23:38:27.127Z,19.77
2023-03-01T23:41:16.515Z,20.45
2023-03-01T23:44:05.853Z,16.48
2023-03-01T23:46:53.257Z,19.75
2023-03-01T23:49:40.690Z,19.77
2023-03-01T23:52:27.921Z,17.77
2023-03-01T23:55:16.674Z,16.27
2023-03-01T23:58:04.406Z,16.95
